Latest Coastal Weather Observations for Cape Jaffa

IDS60701

Issued at 2:31 am CST Tuesday 28 April 2015 (issued every 10 minutes, with the page automatically refreshed every 10 minutes)

About coastal observations | Map of coastal stations | Coastal observations for SA | Marine services | Other Formats
Station Details ID: 026095 Name: THE LIMESTONE Lat: -36.97 Lon: 139.72 Height: 17.0 m
Data from the previous 72 hours. | See also: Recent months at Cape Jaffa
Date/Time
CST
Temp

°C
Wind Pressure Rain
since 9am
mm
Weather Cloud Vis
km
Sea
Height
m
Swell
Dir
 
Speed
knots
Gust
knots
hPa Trend Height
m
Period
s
Dir
28/02:30am 10.3 S 6 10 1028.7 - 1.2 - - - - - - -
28/02:00am 9.2 SE 4 4 1028.7 - 1.2 - - - - - - -
28/01:30am 8.9 SE 2 2 1028.6 - 1.2 - - - - - - -
28/01:00am 9.4 E 3 3 1028.5 - 1.2 - - - - - - -
28/12:30am 10.2 ESE 3 4 1028.6 - 1.2 - - - - - - -
28/12:00am 10.7 SE 4 5 1028.5 - 1.2 - - - - - - -
 
Date/Time
CST
Temp

°C
Wind Pressure Rain
since 9am
mm
Weather Cloud Vis
km
Sea
Height
m
Swell
Dir
 
Speed
knots
Gust
knots
hPa Trend Height
m
Period
s
Dir
27/11:30pm 9.9 SE 5 6 1028.5 - 1.2 - - - - - - -
27/11:00pm 10.0 SSE 5 7 1028.4 - 1.2 - - - - - - -
27/10:30pm 10.1 SSE 6 7 1028.5 - 1.2 - - - - - - -
27/10:00pm 10.6 SSE 7 8 1028.5 - 1.2 - - - - - - -
27/09:30pm 11.1 SSE 6 9 1028.4 - 1.2 - - - - - - -
27/09:00pm 11.1 SSE 6 8 1028.2 - 1.2 Rain - - - - - -
27/08:30pm 11.4 SE 5 7 1028.0 - 1.0 - - - - - - -
27/08:00pm 12.3 SW 11 19 1027.9 - 1.0 - - - - - - -
27/07:30pm 12.1 SSE 7 9 1027.7 - 0.4 - - - - - - -
27/07:00pm 11.9 SSW 4 5 1027.5 - 0.4 - - - - - - -
27/06:30pm 12.0 S 4 5 1027.3 - 0.4 - - - - - - -
27/06:00pm 11.9 SSW 10 13 1027.2 - 0.4 Recent precip. - - - - - -
27/05:30pm 13.0 SW 11 13 1026.9 - 0.2 - - - - - - -
27/05:00pm 13.2 SW 10 13 1026.7 - 0.2 - - - - - - -
27/04:30pm 14.1 S 13 16 1026.5 - 0.2 - - - - - - -
27/04:00pm 14.5 SSW 13 17 1026.4 - 0.2 - - - - - - -
27/03:30pm 14.3 SSW 10 14 1026.4 - 0.2 - - - - - - -
27/03:00pm 14.8 SW 13 17 1026.3 - 0.2 - - - - - - -
27/02:30pm 15.8 SSW 13 16 1026.0 - 0.2 - - - - - - -
27/02:00pm 15.6 SSW 14 17 1025.8 - 0.2 - - - - - - -
27/01:30pm 14.6 SW 8 10 1026.0 - 0.2 - - - - - - -
27/01:00pm 14.2 SW 12 19 1026.1 - 0.0 - - - - - - -
27/12:30pm 15.3 SW 13 15 1026.2 - 0.0 - - - - - - -
27/12:00pm 15.9 SSW 12 16 1026.5 - 0.0 - - - - - - -
27/11:30am 15.1 SSW 14 18 1026.7 - 0.0 - - - - - - -
27/11:00am 15.6 SW 15 18 1026.8 - 0.0 - - - - - - -
27/10:30am 14.5 SSW 10 17 1026.8 - 0.0 - - - - - - -
27/10:00am 13.9 SSW 9 12 1026.8 - 0.0 - - - - - - -
27/09:30am 12.9 SSW 18 21 1026.7 - 0.0 - - - - - - -
27/09:00am 14.1 SSW 11 16 1026.5 - 0.2 - - - - - - -
27/08:30am 12.1 SW 5 7 1026.6 - 0.2 - - - - - - -
27/08:00am 11.4 SSW 19 24 1026.3 - 0.2 - - - - - - -
27/07:30am 12.7 SW 12 15 1025.9 - 0.2 - - - - - - -
27/07:00am 11.9 WSW 16 22 1025.7 - 0.2 - - - - - - -
27/06:30am 12.8 SW 11 15 1025.6 - 0.2 - - - - - - -
27/06:00am 13.1 SW 13 17 1025.3 - 0.2 - - - - - - -
27/05:30am 13.1 SW 10 14 1025.2 - 0.2 - - - - - - -
27/05:00am 13.0 SSW 12 16 1025.0 - 0.2 - - - - - - -
27/04:30am 12.7 SSW 13 17 1024.8 - 0.2 - - - - - - -
27/04:00am 12.7 SW 10 16 1024.8 - 0.0 - - - - - - -
27/03:30am 12.8 SW 13 18 1024.7 - 0.0 - - - - - - -
27/03:00am 12.7 SSW 13 19 1024.6 - 0.0 - - - - - - -
27/02:30am 12.3 SW 9 11 1024.8 - 0.0 - - - - - - -
27/02:00am 12.3 SW 8 15 1024.8 - 0.0 - - - - - - -
27/01:30am 11.9 S 6 8 1024.9 - 0.0 - - - - - - -
27/01:00am 12.2 WSW 10 14 1024.9 - 0.0 - - - - - - -
27/12:30am 11.6 SW 6 9 1025.0 - 0.0 - - - - - - -
27/12:00am 11.9 SW 11 17 1025.1 - 0.0 - - - - - - -
 
Date/Time
CST
Temp

°C
Wind Pressure Rain
since 9am
mm
Weather Cloud Vis
km
Sea
Height
m
Swell
Dir
 
Speed
knots
Gust
knots
hPa Trend Height
m
Period
s
Dir
26/11:30pm 12.5 SW 8 13 1025.1 - 0.0 - - - - - - -
26/11:00pm 12.1 WSW 10 13 1025.3 - 0.0 - - - - - - -
26/10:30pm 13.0 WSW 13 18 1025.3 - 0.0 - - - - - - -
26/10:00pm 12.9 SW 13 17 1025.1 - 0.0 - - - - - - -
26/09:30pm 12.8 SW 8 12 1025.1 - 0.0 - - - - - - -
26/09:00pm 13.6 SW 9 13 1025.1 - 0.0 - - - - - - -
26/08:30pm 13.4 SW 9 11 1025.1 - 0.0 - - - - - - -
26/08:00pm 13.4 SW 10 14 1025.0 - 0.0 - - - - - - -
26/07:30pm 13.0 SW 13 17 1025.0 - 0.0 - - - - - - -
26/07:00pm 13.6 SW 11 14 1024.6 - 0.0 - - - - - - -
26/06:30pm 13.7 SW 13 19 1024.5 - 0.0 - - - - - - -
26/06:00pm 13.7 SW 12 16 1024.4 - 0.0 - - - - - - -
26/05:30pm 13.6 SW 11 15 1024.1 - 0.0 - - - - - - -
26/05:00pm 13.8 SW 10 13 1023.9 - 0.0 - - - - - - -
26/04:30pm 13.9 SSW 12 17 1023.8 - 0.0 - - - - - - -
26/04:00pm 14.3 SSW 11 17 1023.6 - 0.0 - - - - - - -
26/03:30pm 14.0 SW 13 18 1023.6 - 0.0 - - - - - - -
26/03:00pm 14.5 SW 12 16 1023.4 - 0.0 - - - - - - -
26/02:30pm 14.8 SW 12 17 1023.4 - 0.0 - - - - - - -
26/02:00pm 14.6 SW 13 18 1023.3 - 0.0 - - - - - - -
26/01:30pm 14.9 SW 13 19 1023.2 - 0.0 - - - - - - -
26/01:00pm 14.1 SSW 15 19 1023.2 - 0.0 - - - - - - -
26/12:30pm 14.5 SSW 13 16 1023.4 - 0.0 - - - - - - -
26/12:00pm 14.6 SW 15 21 1023.5 - 0.0 - - - - - - -
26/11:30am 14.2 SW 14 20 1023.7 - 0.0 - - - - - - -
26/11:00am 13.7 SW 13 16 1023.7 - 0.0 - - - - - - -
26/10:30am 13.9 SW 16 21 1023.7 - 0.0 - - - - - - -
26/10:00am 13.4 SSW 17 23 1023.7 - 0.0 - - - - - - -
26/09:30am 13.4 SW 15 22 1023.5 - 0.0 - - - - - - -
26/09:00am 13.6 SSW 16 20 1023.2 - 2.0 - - - - - - -
26/08:30am 13.7 SW 16 20 1022.9 - 2.0 - - - - - - -
26/08:00am 13.4 SW 17 21 1022.7 - 2.0 - - - - - - -
26/07:30am 12.9 SSW 16 20 1022.4 - 2.0 - - - - - - -
26/07:00am 11.8 SW 14 20 1022.1 - 2.0 - - - - - - -
26/06:30am 12.3 SSW 15 18 1021.7 - 2.0 - - - - - - -
26/06:00am 11.7 SSW 15 26 1021.2 - 2.0 - - - - - - -
26/05:30am 11.9 SSW 12 17 1021.3 - 2.0 - - - - - - -
26/05:00am 12.2 SW 14 23 1021.2 - 2.0 - - - - - - -
26/04:30am 12.5 SSW 13 17 1020.9 - 2.0 - - - - - - -
26/04:00am 12.2 SSW 14 18 1020.6 - 2.0 - - - - - - -
26/03:30am 11.9 SSW 9 13 1020.5 - 1.8 - - - - - - -
26/03:00am 11.7 S 10 14 1020.4 - 1.8 - - - - - - -
26/02:30am 10.8 SSE 6 8 1020.5 - 1.8 - - - - - - -
26/02:00am 11.5 S 11 15 1020.4 - 1.8 - - - - - - -
26/01:30am 11.4 S 9 13 1020.4 - 1.4 - - - - - - -
26/01:00am 11.5 S 13 22 1020.1 - 1.4 - - - - - - -
26/12:30am 11.9 SSW 12 16 1020.1 - 1.4 - - - - - - -
26/12:00am 11.5 SSW 15 21 1020.1 - 1.4 Recent precip. - - - - - -
 
Date/Time
CST
Temp

°C
Wind Pressure Rain
since 9am
mm
Weather Cloud Vis
km
Sea
Height
m
Swell
Dir
 
Speed
knots
Gust
knots
hPa Trend Height
m
Period
s
Dir
25/11:30pm 11.1 SSW 11 18 1019.9 - 1.4 - - - - - - -
25/11:00pm 10.9 S 9 12 1020.0 - 1.0 - - - - - - -
25/10:30pm 11.7 S 12 15 1020.0 - 1.0 - - - - - - -
25/10:00pm 12.8 SSW 12 15 1019.8 - 1.0 - - - - - - -
25/09:30pm 12.9 S 15 20 1019.5 - 1.0 - - - - - - -
25/09:00pm 12.9 SSW 11 14 1019.3 - 1.0 - - - - - - -
25/08:30pm 12.4 S 11 18 1019.1 - 1.0 - - - - - - -
25/08:00pm 12.8 SSW 14 19 1018.7 - 1.0 - - - - - - -
25/07:30pm 12.5 S 15 19 1018.4 - 1.0 - - - - - - -
25/07:00pm 12.3 S 16 20 1018.0 - 1.0 - - - - - - -
25/06:30pm 12.6 S 19 24 1017.5 - 1.0 - - - - - - -
25/06:00pm 13.0 S 19 25 1016.9 - 1.0 - - - - - - -
25/05:30pm 12.8 S 19 23 1016.6 - 1.0 - - - - - - -
25/05:00pm 13.3 S 21 27 1015.8 - 1.0 - - - - - - -
25/04:30pm 13.3 S 23 28 1015.2 - 1.0 - - - - - - -
25/04:00pm 13.3 S 22 27 1014.9 - 1.0 - - - - - - -
25/03:30pm 13.2 S 24 29 1014.4 - 0.8 - - - - - - -
25/03:00pm 14.0 S 22 29 1014.0 - 0.8 - - - - - - -
25/02:30pm 14.4 S 24 32 1013.4 - 0.8 - - - - - - -
25/02:00pm 15.1 S 23 29 1013.1 - 0.8 - - - - - - -
25/01:30pm 15.1 S 23 29 1012.7 - 0.8 - - - - - - -
25/01:00pm 14.8 S 25 33 1012.2 - 0.8 - - - - - - -
25/12:30pm 14.6 S 23 29 1012.2 - 0.8 - - - - - - -
25/12:00pm 14.6 S 22 29 1011.9 - 0.8 Recent precip. - - - - - -
25/11:30am 13.0 S 21 33 1011.6 - 0.6 - - - - - - -
25/11:27am 14.1 S 17 29 1011.7 - 0.2 - - - - - - -
25/11:26am 14.3 S 16 25 1011.8 - 0.0 - - - - - - -
25/11:00am 13.4 S 12 15 1012.0 - 0.0 - - - - - - -
25/10:30am 14.2 SSW 9 14 1011.5 - 0.0 - - - - - - -
25/10:00am 13.8 SW 10 12 1011.2 - 0.0 - - - - - - -
25/09:30am 14.4 SW 8 13 1010.8 - 0.0 - - - - - - -
25/09:00am 14.1 SSW 9 13 1010.6 - 2.6 - - - - - - -
25/08:30am 14.1 SW 10 14 1010.5 - 2.6 - - - - - - -
25/08:00am 13.8 SSW 10 14 1010.4 - 2.6 - - - - - - -
25/07:30am 12.7 SSW 13 16 1010.0 - 2.6 - - - - - - -
25/07:00am 9.9 S 3 4 1009.7 - 2.6 - - - - - - -
25/06:30am 9.3 S 3 5 1009.3 - 2.6 - - - - - - -
25/06:00am 8.5 SSW 6 8 1009.2 - 2.4 - - - - - - -
25/05:30am 7.9 S 6 6 1008.6 - 2.4 - - - - - - -
25/05:00am 7.9 S 4 5 1008.4 - 2.4 - - - - - - -
25/04:30am 7.5 SE 3 5 1008.0 - 2.4 - - - - - - -
25/04:00am 7.6 SE 3 5 1007.7 - 2.4 - - - - - - -
25/03:30am 9.0 S 3 5 1007.4 - 2.4 - - - - - - -
25/03:00am 9.6 E 3 4 1007.2 - 2.4 - - - - - - -

Other Formats:

Comma delimited format used in spreadsheet applications
http://www.bom.gov.au/fwo/IDS60701/IDS60701.94813.axf

JavaScript Object Notation format (JSON) in row-major order
http://www.bom.gov.au/fwo/IDS60701/IDS60701.94813.json